createdAt,value
2018-12-08T00:00:34.304Z,193.07
2018-12-08T00:03:02.913Z,214.82
2018-12-08T00:05:31.570Z,209.37
2018-12-08T00:08:00.342Z,190.25
2018-12-08T00:10:28.947Z,184.67
2018-12-08T00:12:57.706Z,180.57
2018-12-08T00:15:26.399Z,193.80
2018-12-08T00:17:55.058Z,184.52
2018-12-08T00:20:23.690Z,296.12
2018-12-08T00:22:52.323Z,312.40
2018-12-08T00:25:20.990Z,308.15
2018-12-08T00:27:49.617Z,342.20
2018-12-08T00:30:29.408Z,342.77
2018-12-08T00:32:58.074Z,308.27
2018-12-08T00:35:26.723Z,319.35
2018-12-08T00:37:55.335Z,339.00
2018-12-08T00:40:23.938Z,354.02
2018-12-08T00:42:52.610Z,337.95
2018-12-08T00:45:21.308Z,326.18
2018-12-08T00:47:49.969Z,265.48
2018-12-08T00:50:18.587Z,273.02
2018-12-08T00:52:47.473Z,277.82
2018-12-08T00:55:16.032Z,232.77
2018-12-08T00:57:44.639Z,230.90
2018-12-08T01:00:13.257Z,245.10
2018-12-08T01:02:41.921Z,229.30
2018-12-08T01:05:10.567Z,201.02
2018-12-08T01:07:39.212Z,254.85
2018-12-08T01:10:07.986Z,239.23
2018-12-08T01:12:36.605Z,266.05
2018-12-08T01:15:05.604Z,257.62
2018-12-08T01:17:34.261Z,175.53
2018-12-08T01:20:03.027Z,189.07
2018-12-08T01:22:31.630Z,171.80
2018-12-08T01:25:00.299Z,153.70
2018-12-08T01:27:28.874Z,158.12
2018-12-08T01:29:57.474Z,133.63
2018-12-08T01:32:26.146Z,153.75
2018-12-08T01:34:54.840Z,154.32
2018-12-08T01:37:23.461Z,170.25
2018-12-08T01:39:52.040Z,168.72
2018-12-08T01:42:20.676Z,163.15
2018-12-08T01:44:49.351Z,175.65
2018-12-08T01:47:17.952Z,185.43
2018-12-08T01:49:46.551Z,164.15
2018-12-08T01:52:15.187Z,170.62
2018-12-08T01:54:43.925Z,170.62
2018-12-08T01:57:12.577Z,152.40
2018-12-08T01:59:41.299Z,156.82
2018-12-08T02:02:09.959Z,137.90
2018-12-08T02:04:38.611Z,146.93
2018-12-08T02:07:07.387Z,171.80
2018-12-08T02:09:36.128Z,195.35
2018-12-08T02:12:04.927Z,197.78
2018-12-08T02:14:33.578Z,192.37
2018-12-08T02:17:02.314Z,202.38
2018-12-08T02:19:31.055Z,208.25
2018-12-08T02:21:59.787Z,186.67
2018-12-08T02:24:28.439Z,161.07
2018-12-08T02:26:57.151Z,166.62
2018-12-08T02:29:25.807Z,181.32
2018-12-08T02:31:54.468Z,169.53
2018-12-08T02:34:23.113Z,180.45
2018-12-08T02:36:51.774Z,143.85
2018-12-08T02:39:20.418Z,194.15
2018-12-08T02:41:49.071Z,184.97
2018-12-08T02:44:18.141Z,164.82
2018-12-08T02:46:46.763Z,148.10
2018-12-08T02:49:17.512Z,116.47
2018-12-08T02:51:46.291Z,93.42
2018-12-08T02:54:15.477Z,125.15
2018-12-08T02:56:44.147Z,98.55
2018-12-08T02:59:12.816Z,107.52
2018-12-08T03:01:41.459Z,124.87
2018-12-08T03:04:10.191Z,152.55
2018-12-08T03:06:38.899Z,141.05
2018-12-08T03:09:09.336Z,151.87
2018-12-08T03:11:38.001Z,162.22
2018-12-08T03:14:06.675Z,151.05
2018-12-08T03:16:35.350Z,148.38
2018-12-08T03:19:03.949Z,157.47
2018-12-08T03:21:32.587Z,166.97
2018-12-08T03:24:01.193Z,164.05
2018-12-08T03:26:29.795Z,157.07
2018-12-08T03:28:58.406Z,156.72
2018-12-08T03:31:27.022Z,148.65
2018-12-08T03:33:55.591Z,144.10
2018-12-08T03:36:24.241Z,150.12
2018-12-08T03:38:52.816Z,157.12
2018-12-08T03:41:21.449Z,173.43
2018-12-08T03:43:50.045Z,154.82
2018-12-08T03:46:18.689Z,136.07
2018-12-08T03:48:47.318Z,134.22
2018-12-08T03:51:15.919Z,123.22
2018-12-08T03:53:44.611Z,135.00
2018-12-08T03:56:13.199Z,131.85
2018-12-08T03:58:41.849Z,138.95
2018-12-08T04:01:10.460Z,136.18
2018-12-08T04:03:39.228Z,126.97
2018-12-08T04:06:07.885Z,111.60
2018-12-08T04:08:36.565Z,108.90
2018-12-08T04:11:05.228Z,110.97
2018-12-08T04:13:33.914Z,111.22
2018-12-08T04:16:02.651Z,102.02
2018-12-08T04:18:31.310Z,100.12
2018-12-08T04:20:59.973Z,107.63
2018-12-08T04:23:28.590Z,103.65
2018-12-08T04:25:57.240Z,104.92
2018-12-08T04:28:25.893Z,108.60
2018-12-08T04:30:54.562Z,113.30
2018-12-08T04:33:23.126Z,114.42
2018-12-08T04:35:51.740Z,107.70
2018-12-08T04:38:20.354Z,109.32
2018-12-08T04:40:48.949Z,115.97
2018-12-08T04:43:17.583Z,100.80
2018-12-08T04:45:46.314Z,106.45
2018-12-08T04:48:15.007Z,108.45
2018-12-08T04:50:43.621Z,104.15
2018-12-08T04:53:12.339Z,107.17
2018-12-08T04:55:40.962Z,109.10
2018-12-08T04:58:09.546Z,104.92
2018-12-08T05:00:38.211Z,113.00
2018-12-08T05:03:06.819Z,108.83
2018-12-08T05:05:35.464Z,117.33
2018-12-08T05:08:04.071Z,147.22
2018-12-08T05:10:32.643Z,135.57
2018-12-08T05:13:01.239Z,123.25
2018-12-08T05:15:29.819Z,135.75
2018-12-08T05:17:58.477Z,127.72
2018-12-08T05:20:27.057Z,111.65
2018-12-08T05:22:55.811Z,121.85
2018-12-08T05:25:24.794Z,96.63
2018-12-08T05:27:53.560Z,109.10
2018-12-08T05:30:22.290Z,103.90
2018-12-08T05:32:50.979Z,103.78
2018-12-08T05:35:19.610Z,93.87
2018-12-08T05:37:48.228Z,104.23
2018-12-08T05:40:16.808Z,110.63
2018-12-08T05:42:45.347Z,86.78
2018-12-08T05:45:13.987Z,90.60
2018-12-08T05:47:42.586Z,91.70
2018-12-08T05:50:11.215Z,100.87
2018-12-08T05:52:40.121Z,99.77
2018-12-08T05:55:08.447Z,93.60
2018-12-08T05:57:37.062Z,90.03
2018-12-08T06:00:09.440Z,94.95
2018-12-08T06:02:38.077Z,112.12
2018-12-08T06:05:07.683Z,111.30
2018-12-08T06:07:36.259Z,112.22
2018-12-08T06:10:05.685Z,123.62
2018-12-08T06:12:34.339Z,122.00
2018-12-08T06:15:02.970Z,120.13
2018-12-08T06:17:31.803Z,119.90
2018-12-08T06:20:00.521Z,117.28
2018-12-08T06:22:29.135Z,112.90
2018-12-08T06:24:57.740Z,109.45
2018-12-08T06:27:33.666Z,103.38
2018-12-08T06:30:05.855Z,109.22
2018-12-08T06:32:34.415Z,95.77
2018-12-08T06:35:03.042Z,97.93
2018-12-08T06:37:31.680Z,95.87
2018-12-08T06:40:00.287Z,101.00
2018-12-08T06:42:28.916Z,102.00
2018-12-08T06:44:57.812Z,98.67
2018-12-08T06:47:26.359Z,102.73
2018-12-08T06:49:55.217Z,102.53
2018-12-08T06:52:23.859Z,111.07
2018-12-08T06:54:52.449Z,98.43
2018-12-08T06:57:21.057Z,109.73
2018-12-08T06:59:49.657Z,114.80
2018-12-08T07:02:18.295Z,104.33
2018-12-08T07:04:46.941Z,117.20
2018-12-08T07:07:15.559Z,113.80
2018-12-08T07:09:44.171Z,115.17
2018-12-08T07:12:13.297Z,111.93
2018-12-08T07:14:41.891Z,111.80
2018-12-08T07:17:10.590Z,129.53
2018-12-08T07:19:39.252Z,135.73
2018-12-08T07:22:08.127Z,136.50
2018-12-08T07:24:36.707Z,111.80
2018-12-08T07:27:05.366Z,119.97
2018-12-08T07:29:34.045Z,132.43
2018-12-08T07:32:02.666Z,109.07
2018-12-08T07:34:31.331Z,132.23
2018-12-08T07:37:00.007Z,140.90
2018-12-08T07:39:28.608Z,168.63
2018-12-08T07:41:57.296Z,164.07
2018-12-08T07:44:25.958Z,175.17
2018-12-08T07:46:54.615Z,203.77
2018-12-08T07:49:23.287Z,186.80
2018-12-08T07:51:51.908Z,200.40
2018-12-08T07:54:20.510Z,185.17
2018-12-08T07:56:49.209Z,182.23
2018-12-08T07:59:17.792Z,181.50
2018-12-08T08:01:46.527Z,164.67
2018-12-08T08:04:15.163Z,162.13
2018-12-08T08:06:43.868Z,147.30
2018-12-08T08:09:12.465Z,129.30
2018-12-08T08:11:41.231Z,127.37
2018-12-08T08:14:09.985Z,117.27
2018-12-08T08:16:38.926Z,101.40
2018-12-08T08:19:07.560Z,98.73
2018-12-08T08:21:36.216Z,100.63
2018-12-08T08:24:04.914Z,95.53
2018-12-08T08:26:33.541Z,96.83
2018-12-08T08:29:02.219Z,105.03
2018-12-08T08:31:30.996Z,102.37
2018-12-08T08:33:59.624Z,95.83
2018-12-08T08:36:28.329Z,91.07
2018-12-08T08:38:57.013Z,86.37
2018-12-08T08:41:25.617Z,97.00
2018-12-08T08:43:56.213Z,95.83
2018-12-08T08:46:24.956Z,107.47
2018-12-08T08:48:53.835Z,102.60
2018-12-08T08:51:22.484Z,107.87
2018-12-08T08:53:51.406Z,107.40
2018-12-08T08:56:19.990Z,108.07
2018-12-08T08:58:49.039Z,115.20
2018-12-08T09:01:17.944Z,120.90
2018-12-08T09:03:46.590Z,115.03
2018-12-08T09:06:15.227Z,116.77
2018-12-08T09:08:43.863Z,113.50
2018-12-08T09:11:12.552Z,109.73
2018-12-08T09:13:41.222Z,108.77
2018-12-08T09:16:09.850Z,113.10
2018-12-08T09:18:38.489Z,120.67
2018-12-08T09:21:07.102Z,116.80
2018-12-08T09:23:35.784Z,126.77
2018-12-08T09:26:04.414Z,109.23
2018-12-08T09:28:33.005Z,107.73
2018-12-08T09:31:01.637Z,108.00
2018-12-08T09:33:30.254Z,117.40
2018-12-08T09:35:58.864Z,107.77
2018-12-08T09:38:27.474Z,95.83
2018-12-08T09:40:56.072Z,102.23
2018-12-08T09:43:25.015Z,93.77
2018-12-08T09:45:53.800Z,104.43
2018-12-08T09:48:22.484Z,103.77
2018-12-08T09:50:51.240Z,99.47
2018-12-08T09:53:20.421Z,100.87
2018-12-08T09:55:49.053Z,87.07
2018-12-08T09:58:17.743Z,96.87
2018-12-08T10:00:46.377Z,93.57
2018-12-08T10:03:15.013Z,95.53
2018-12-08T10:05:43.652Z,97.83
2018-12-08T10:08:12.305Z,87.90
2018-12-08T10:10:40.937Z,86.17
2018-12-08T10:13:09.603Z,89.83
2018-12-08T10:15:38.293Z,80.40
2018-12-08T10:18:06.994Z,84.27
2018-12-08T10:20:35.587Z,75.80
2018-12-08T10:23:04.330Z,76.70
2018-12-08T10:25:32.926Z,75.27
2018-12-08T10:28:01.551Z,72.63
2018-12-08T10:30:30.233Z,78.50
2018-12-08T10:32:58.912Z,85.57
2018-12-08T10:35:27.535Z,70.83
2018-12-08T10:37:56.182Z,70.57
2018-12-08T10:40:24.881Z,74.47
2018-12-08T10:42:53.519Z,69.03
2018-12-08T10:45:22.225Z,71.17
2018-12-08T10:47:50.820Z,65.57
2018-12-08T10:50:19.516Z,72.70
2018-12-08T10:52:48.129Z,79.23
2018-12-08T10:55:16.784Z,77.63
2018-12-08T10:57:45.454Z,76.87
2018-12-08T11:00:21.638Z,82.23
2018-12-08T11:02:53.482Z,73.57
2018-12-08T11:05:22.395Z,86.30
2018-12-08T11:07:51.053Z,76.87
2018-12-08T11:10:19.673Z,89.80
2018-12-08T11:12:48.312Z,91.00
2018-12-08T11:15:16.974Z,93.13
2018-12-08T11:17:45.582Z,99.80
2018-12-08T11:20:14.189Z,94.50
2018-12-08T11:22:42.815Z,100.03
2018-12-08T11:25:11.591Z,114.60
2018-12-08T11:27:40.230Z,112.97
2018-12-08T11:30:09.173Z,118.40
2018-12-08T11:32:37.829Z,115.30
2018-12-08T11:35:06.511Z,123.10
2018-12-08T11:37:35.137Z,126.17
2018-12-08T11:40:04.173Z,116.37
2018-12-08T11:42:32.863Z,126.13
2018-12-08T11:45:01.661Z,118.10
2018-12-08T11:47:30.298Z,105.20
2018-12-08T11:49:58.912Z,91.97
2018-12-08T11:52:27.578Z,98.23
2018-12-08T11:54:56.253Z,99.37
2018-12-08T11:57:24.939Z,91.23
2018-12-08T11:59:53.606Z,94.30
2018-12-08T12:02:22.255Z,98.90
2018-12-08T12:04:50.920Z,98.87
2018-12-08T12:07:19.569Z,83.77
2018-12-08T12:09:48.336Z,80.53
2018-12-08T12:12:17.026Z,78.80
2018-12-08T12:14:49.098Z,79.73
2018-12-08T12:17:17.748Z,87.67
2018-12-08T12:19:46.436Z,91.53
2018-12-08T12:22:15.043Z,93.27
2018-12-08T12:24:43.627Z,94.97
2018-12-08T12:27:12.235Z,98.53
2018-12-08T12:29:40.834Z,101.97
2018-12-08T12:32:09.466Z,94.73
2018-12-08T12:34:38.090Z,86.80
2018-12-08T12:37:06.737Z,88.77
2018-12-08T12:39:35.471Z,98.00
2018-12-08T12:42:04.553Z,93.47
2018-12-08T12:44:33.331Z,92.40
2018-12-08T12:47:01.952Z,83.00
2018-12-08T12:49:30.661Z,73.00
2018-12-08T12:51:59.284Z,78.90
2018-12-08T12:54:27.911Z,70.90
2018-12-08T12:56:56.581Z,68.77
2018-12-08T12:59:25.198Z,62.43
2018-12-08T13:01:53.984Z,70.77
2018-12-08T13:04:22.574Z,66.57
2018-12-08T13:06:51.188Z,67.40
2018-12-08T13:09:19.790Z,69.23
2018-12-08T13:11:48.602Z,68.97
2018-12-08T13:14:17.275Z,70.83
2018-12-08T13:16:45.877Z,69.73
2018-12-08T13:19:14.423Z,77.43
2018-12-08T13:21:42.988Z,75.07
2018-12-08T13:24:11.628Z,93.37
2018-12-08T13:26:40.249Z,97.33
2018-12-08T13:29:08.850Z,79.33
2018-12-08T13:31:37.424Z,93.90
2018-12-08T13:34:22.972Z,77.43
2018-12-08T13:36:51.591Z,69.47
2018-12-08T13:39:20.512Z,71.33
2018-12-08T13:41:49.168Z,74.63
2018-12-08T13:44:34.851Z,73.13
2018-12-08T13:47:03.710Z,69.97
2018-12-08T13:49:32.744Z,80.00
2018-12-08T13:52:01.428Z,80.80
2018-12-08T13:54:48.104Z,77.37
2018-12-08T13:57:16.749Z,73.50
2018-12-08T13:59:53.949Z,75.30
2018-12-08T14:02:22.733Z,67.73
2018-12-08T14:04:51.300Z,67.13
2018-12-08T14:07:19.918Z,68.47
2018-12-08T14:09:48.516Z,67.03
2018-12-08T14:12:17.882Z,73.80
2018-12-08T14:14:46.484Z,82.23
2018-12-08T14:17:23.798Z,111.90
2018-12-08T14:19:52.451Z,79.80
2018-12-08T14:22:21.028Z,83.87
2018-12-08T14:24:49.590Z,78.87
2018-12-08T14:27:18.239Z,79.60
2018-12-08T14:29:46.978Z,81.70
2018-12-08T14:32:15.587Z,88.13
2018-12-08T14:34:44.160Z,94.80
2018-12-08T14:37:12.812Z,99.77
2018-12-08T14:39:41.451Z,105.27
2018-12-08T14:42:10.111Z,119.70
2018-12-08T14:44:38.806Z,119.67
2018-12-08T14:47:07.453Z,123.63
2018-12-08T14:49:36.047Z,121.70
2018-12-08T14:52:04.625Z,126.20
2018-12-08T14:54:33.226Z,119.80
2018-12-08T14:57:01.889Z,113.30
2018-12-08T14:59:30.524Z,100.17
2018-12-08T15:01:59.161Z,108.17
2018-12-08T15:04:27.785Z,92.90
2018-12-08T15:06:56.406Z,103.83
2018-12-08T15:09:24.927Z,112.90
2018-12-08T15:11:53.621Z,100.57
2018-12-08T15:14:22.226Z,95.20
2018-12-08T15:16:50.950Z,108.30
2018-12-08T15:19:20.407Z,113.03
2018-12-08T15:21:49.012Z,98.27
2018-12-08T15:24:17.679Z,104.53
2018-12-08T15:26:46.283Z,105.03
2018-12-08T15:29:14.925Z,102.00
2018-12-08T15:31:43.566Z,95.37
2018-12-08T15:34:12.145Z,103.23
2018-12-08T15:36:40.754Z,100.57
2018-12-08T15:39:09.541Z,100.20
2018-12-08T15:41:38.143Z,105.13
2018-12-08T15:44:06.880Z,105.40
2018-12-08T15:46:35.473Z,101.63
2018-12-08T15:49:04.227Z,107.97
2018-12-08T15:51:32.815Z,109.30
2018-12-08T15:54:01.420Z,112.50
2018-12-08T15:56:30.072Z,111.97
2018-12-08T15:58:58.679Z,133.53
2018-12-08T16:01:27.269Z,136.13
2018-12-08T16:03:55.869Z,162.37
2018-12-08T16:06:24.467Z,152.33
2018-12-08T16:08:53.101Z,151.07
2018-12-08T16:11:21.694Z,170.17
2018-12-08T16:13:50.338Z,141.03
2018-12-08T16:16:19.076Z,134.73
2018-12-08T16:18:47.722Z,134.67
2018-12-08T16:21:16.642Z,147.47
2018-12-08T16:23:45.355Z,150.87
2018-12-08T16:26:13.966Z,134.93
2018-12-08T16:28:42.559Z,152.57
2018-12-08T16:31:11.156Z,160.27
2018-12-08T16:33:39.743Z,143.90
2018-12-08T16:36:08.393Z,146.53
2018-12-08T16:38:37.002Z,153.27
2018-12-08T16:41:05.693Z,154.63
2018-12-08T16:43:34.426Z,150.03
2018-12-08T16:46:02.965Z,150.50
2018-12-08T16:48:31.598Z,180.90
2018-12-08T16:51:00.202Z,243.03
2018-12-08T16:53:28.765Z,265.73
2018-12-08T16:55:57.545Z,255.33
2018-12-08T16:58:26.201Z,228.87
2018-12-08T17:00:54.868Z,207.70
2018-12-08T17:03:23.465Z,206.00
2018-12-08T17:05:52.115Z,198.37
2018-12-08T17:08:20.845Z,173.27
2018-12-08T17:10:49.467Z,162.37
2018-12-08T17:13:18.088Z,138.53
2018-12-08T17:15:46.733Z,137.17
2018-12-08T17:18:15.349Z,143.13
2018-12-08T17:20:44.767Z,136.00
2018-12-08T17:23:13.561Z,136.33
2018-12-08T17:25:42.197Z,140.63
2018-12-08T17:28:11.656Z,131.10
2018-12-08T17:30:40.313Z,126.63
2018-12-08T17:33:08.886Z,174.93
2018-12-08T17:35:37.596Z,152.87
2018-12-08T17:38:06.199Z,201.90
2018-12-08T17:40:34.837Z,147.67
2018-12-08T17:43:03.550Z,122.03
2018-12-08T17:45:32.288Z,100.20
2018-12-08T17:48:00.907Z,101.50
2018-12-08T17:50:29.487Z,96.30
2018-12-08T17:52:58.073Z,177.63
2018-12-08T17:55:26.664Z,173.10
2018-12-08T17:57:55.256Z,158.70
2018-12-08T18:00:23.901Z,158.60
2018-12-08T18:02:52.637Z,145.13
2018-12-08T18:05:21.335Z,128.23
2018-12-08T18:07:50.077Z,126.90
2018-12-08T18:10:18.788Z,124.97
2018-12-08T18:12:47.360Z,98.90
2018-12-08T18:15:16.083Z,121.00
2018-12-08T18:17:44.789Z,133.63
2018-12-08T18:20:13.547Z,124.87
2018-12-08T18:22:42.299Z,158.43
2018-12-08T18:25:11.160Z,167.03
2018-12-08T18:27:39.992Z,167.70
2018-12-08T18:30:11.969Z,167.97
2018-12-08T18:32:40.592Z,157.53
2018-12-08T18:35:09.211Z,158.87
2018-12-08T18:37:37.848Z,161.40
2018-12-08T18:40:06.892Z,164.60
2018-12-08T18:42:35.820Z,159.03
2018-12-08T18:45:04.776Z,157.63
2018-12-08T18:47:33.770Z,166.37
2018-12-08T18:50:02.409Z,198.77
2018-12-08T18:52:31.016Z,210.63
2018-12-08T18:54:59.609Z,174.17
2018-12-08T18:57:28.245Z,145.90
2018-12-08T18:59:56.837Z,156.97
2018-12-08T19:02:25.439Z,175.00
2018-12-08T19:04:54.050Z,164.23
2018-12-08T19:07:22.644Z,159.33
2018-12-08T19:09:51.267Z,182.10
2018-12-08T19:12:19.861Z,172.77
2018-12-08T19:14:48.521Z,220.13
2018-12-08T19:17:17.125Z,233.87
2018-12-08T19:19:45.735Z,322.77
2018-12-08T19:22:14.346Z,297.70
2018-12-08T19:24:42.934Z,268.67
2018-12-08T19:27:11.554Z,321.40
2018-12-08T19:29:40.145Z,319.87
2018-12-08T19:32:08.747Z,284.13
2018-12-08T19:34:37.379Z,264.70
2018-12-08T19:37:06.019Z,207.03
2018-12-08T19:39:34.592Z,281.27
2018-12-08T19:42:03.195Z,275.43
2018-12-08T19:44:31.829Z,300.57
2018-12-08T19:47:00.480Z,309.43
2018-12-08T19:49:29.074Z,292.30
2018-12-08T19:51:57.686Z,309.77
2018-12-08T19:54:26.302Z,311.07
2018-12-08T19:56:54.981Z,359.53
2018-12-08T19:59:23.588Z,334.40
2018-12-08T20:01:52.219Z,365.20
2018-12-08T20:04:20.819Z,321.00
2018-12-08T20:06:49.568Z,287.27
2018-12-08T20:09:18.163Z,225.93
2018-12-08T20:11:46.769Z,224.00
2018-12-08T20:14:15.366Z,266.00
2018-12-08T20:16:43.967Z,262.47
2018-12-08T20:19:12.600Z,274.93
2018-12-08T20:21:41.230Z,278.80
2018-12-08T20:24:10.117Z,274.03
2018-12-08T20:26:38.756Z,260.83
2018-12-08T20:29:07.564Z,262.67
2018-12-08T20:31:36.165Z,224.87
2018-12-08T20:34:04.763Z,215.43
2018-12-08T20:36:33.364Z,180.23
2018-12-08T20:39:01.993Z,217.83
2018-12-08T20:41:30.741Z,201.70
2018-12-08T20:43:59.857Z,214.27
2018-12-08T20:46:28.516Z,227.63
2018-12-08T20:48:57.213Z,225.87
2018-12-08T20:51:25.850Z,222.87
2018-12-08T20:53:54.485Z,233.13
2018-12-08T20:56:23.091Z,217.03
2018-12-08T20:58:51.689Z,213.87
2018-12-08T21:01:20.389Z,185.23
2018-12-08T21:03:48.993Z,174.53
2018-12-08T21:06:17.625Z,162.60
2018-12-08T21:08:46.253Z,144.57
2018-12-08T21:11:14.895Z,145.83
2018-12-08T21:13:43.535Z,141.47
2018-12-08T21:16:12.184Z,134.87
2018-12-08T21:18:40.759Z,141.17
2018-12-08T21:21:09.408Z,140.07
2018-12-08T21:23:38.032Z,137.03
2018-12-08T21:26:06.607Z,131.77
2018-12-08T21:28:35.305Z,134.67
2018-12-08T21:31:03.849Z,137.00
2018-12-08T21:33:32.497Z,132.50
2018-12-08T21:36:01.126Z,125.57
2018-12-08T21:38:29.717Z,143.07
2018-12-08T21:40:58.345Z,139.00
2018-12-08T21:43:26.979Z,127.43
2018-12-08T21:45:55.580Z,135.23
2018-12-08T21:48:24.184Z,140.50
2018-12-08T21:50:52.756Z,139.67
2018-12-08T21:53:21.311Z,137.40
2018-12-08T21:55:49.913Z,131.93
2018-12-08T21:58:18.499Z,123.77
2018-12-08T22:00:47.249Z,122.27
2018-12-08T22:03:15.836Z,115.40
2018-12-08T22:05:44.491Z,115.50
2018-12-08T22:08:13.209Z,114.50
2018-12-08T22:10:41.819Z,112.37
2018-12-08T22:13:10.364Z,116.40
2018-12-08T22:15:39.091Z,119.10
2018-12-08T22:18:07.683Z,120.30
2018-12-08T22:20:36.290Z,120.10
2018-12-08T22:23:04.894Z,115.97
2018-12-08T22:25:33.495Z,118.77
2018-12-08T22:28:02.216Z,142.63
2018-12-08T22:30:30.827Z,143.67
2018-12-08T22:32:59.491Z,138.97
2018-12-08T22:35:28.164Z,143.83
2018-12-08T22:37:56.855Z,145.90
2018-12-08T22:40:25.443Z,147.03
2018-12-08T22:42:54.090Z,147.23
2018-12-08T22:45:22.698Z,146.63
2018-12-08T22:47:51.331Z,144.50
2018-12-08T22:50:20.009Z,135.00
2018-12-08T22:52:48.575Z,140.20
2018-12-08T22:55:17.161Z,138.37
2018-12-08T22:57:45.775Z,139.83
2018-12-08T23:00:24.425Z,129.37
2018-12-08T23:02:53.060Z,141.23
2018-12-08T23:05:21.769Z,131.30
2018-12-08T23:07:50.365Z,139.20
2018-12-08T23:10:18.982Z,136.30
2018-12-08T23:12:47.570Z,134.90
2018-12-08T23:15:16.774Z,127.60
2018-12-08T23:17:45.404Z,138.50
2018-12-08T23:20:14.063Z,135.13
2018-12-08T23:22:42.695Z,143.37
2018-12-08T23:25:11.438Z,141.77
2018-12-08T23:27:40.050Z,141.60
2018-12-08T23:30:09.366Z,143.70
2018-12-08T23:32:37.955Z,146.50
2018-12-08T23:35:06.848Z,143.37
2018-12-08T23:37:35.466Z,137.73
2018-12-08T23:40:04.211Z,141.40
2018-12-08T23:42:32.889Z,147.87
2018-12-08T23:45:01.507Z,134.30
2018-12-08T23:47:30.090Z,135.83
2018-12-08T23:49:58.747Z,126.83
2018-12-08T23:52:27.308Z,133.17
2018-12-08T23:54:55.957Z,138.03
2018-12-08T23:57:24.608Z,124.97
2018-12-08T23:59:53.149Z,137.93
